Time;durP1;ratioP1;P1;durP2;ratioP2;P2;SDS_P1;SDS_P2;PMS_P1;PMS_P2;Temp;Humidity;BMP_temperature;BMP_pressure;BME280_temperature;BME280_humidity;BME280_pressure;Samples;Min_cycle;Max_cycle;Signal;HPM_P1;HPM_P2
2023/09/17 00:01:23;;;;;;;15.32;12.23;;;;;;;12.10;56.26;101555.59;5021087;28;20047;-68
2023/09/17 00:03:50;;;;;;;13.40;11.85;;;;;;;12.19;56.21;101552.63;5019579;28;20037;-68
2023/09/17 00:06:16;;;;;;;14.13;11.45;;;;;;;12.20;56.19;101552.59;5010143;28;20418;-68
2023/09/17 00:08:41;;;;;;;14.63;10.43;;;;;;;12.18;55.83;101554.41;5021614;28;20041;-69
2023/09/17 00:11:07;;;;;;;13.52;9.75;;;;;;;12.18;55.96;101549.16;5018542;28;20120;-67
2023/09/17 00:13:33;;;;;;;9.75;8.50;;;;;;;12.18;55.92;101559.66;5023163;28;20040;-66
2023/09/17 00:15:59;;;;;;;13.93;11.82;;;;;;;12.06;55.92;101552.22;5017800;28;20026;-66
2023/09/17 00:18:25;;;;;;;12.85;9.90;;;;;;;11.99;56.01;101561.19;5023197;28;20037;-66
2023/09/17 00:20:51;;;;;;;12.60;10.50;;;;;;;11.96;56.30;101553.47;5021127;28;20059;-66
2023/09/17 00:23:16;;;;;;;14.85;10.50;;;;;;;12.02;56.32;101547.97;5021096;28;20049;-66
2023/09/17 00:25:42;;;;;;;19.20;11.43;;;;;;;12.07;56.50;101548.69;5024383;28;20032;-71
2023/09/17 00:28:09;;;;;;;14.70;11.38;;;;;;;11.96;56.17;101550.84;5016968;28;20056;-71
2023/09/17 00:30:34;;;;;;;15.82;11.18;;;;;;;11.76;56.24;101544.47;5027072;28;20048;-71
2023/09/17 00:33:00;;;;;;;15.88;10.82;;;;;;;11.68;56.72;101543.88;5016447;28;20026;-72
2023/09/17 00:35:25;;;;;;;13.98;11.18;;;;;;;11.61;57.01;101542.38;5010990;28;20061;-71
2023/09/17 00:37:51;;;;;;;15.10;11.57;;;;;;;11.66;57.03;101538.72;5018022;28;20022;-71
2023/09/17 00:40:17;;;;;;;12.40;11.00;;;;;;;11.82;56.66;101535.56;5020087;28;20069;-71
2023/09/17 00:42:43;;;;;;;11.68;10.02;;;;;;;11.76;56.52;101536.63;5041718;28;20130;-70
2023/09/17 00:45:10;;;;;;;15.27;12.13;;;;;;;11.93;56.40;101535.22;5019502;28;20184;-71
2023/09/17 00:47:36;;;;;;;14.88;11.43;;;;;;;11.85;55.98;101544.19;5013806;28;20126;-71
2023/09/17 00:50:03;;;;;;;16.50;13.07;;;;;;;11.67;55.98;101532.56;5033491;28;20049;-71
2023/09/17 00:52:29;;;;;;;14.43;10.98;;;;;;;11.49;56.42;101541.03;5024768;28;20040;-71
2023/09/17 00:54:56;;;;;;;14.52;9.40;;;;;;;11.51;56.36;101536.63;5019035;28;20056;-71
2023/09/17 00:57:22;;;;;;;16.73;11.63;;;;;;;11.52;56.35;101527.84;5024748;28;21196;-71
2023/09/17 00:59:48;;;;;;;11.50;9.32;;;;;;;11.46;56.70;101534.16;5020624;28;20043;-70
2023/09/17 01:02:20;;;;;;;11.55;9.82;;;;;;;11.54;56.07;101531.25;5035995;28;20391;-71
2023/09/17 01:04:49;;;;;;;12.25;8.45;;;;;;;11.56;56.12;101531.22;5004649;28;20048;-71
2023/09/17 01:07:21;;;;;;;11.23;8.52;;;;;;;11.47;56.21;101519.28;5019969;28;20071;-71
2023/09/17 01:09:48;;;;;;;16.42;9.90;;;;;;;11.52;56.11;101516.53;5038936;28;20214;-71
2023/09/17 01:12:14;;;;;;;14.45;10.50;;;;;;;11.50;56.17;101518.31;5026138;28;20540;-71
2023/09/17 01:14:39;;;;;;;13.07;10.40;;;;;;;11.44;56.00;101520.25;5025338;28;20455;-71
2023/09/17 01:17:09;;;;;;;16.02;11.50;;;;;;;11.39;56.05;101529.16;5022871;28;20064;-71
2023/09/17 01:19:36;;;;;;;13.35;11.95;;;;;;;11.34;56.37;101529.31;5024058;28;20090;-71
2023/09/17 01:22:14;;;;;;;22.23;14.13;;;;;;;11.19;56.28;101535.03;5010914;28;20029;-71
2023/09/17 01:25:04;;;;;;;17.08;12.50;;;;;;;11.24;56.65;101539.22;5027850;28;20084;-71
2023/09/17 01:27:35;;;;;;;20.48;12.82;;;;;;;11.19;56.61;101538.50;5023001;28;20033;-71
2023/09/17 01:30:03;;;;;;;21.15;12.82;;;;;;;11.20;56.46;101542.84;5026595;28;20059;-71
2023/09/17 01:32:29;;;;;;;17.25;11.25;;;;;;;11.21;56.37;101539.31;5015559;28;20037;-71
2023/09/17 01:34:56;;;;;;;22.55;14.82;;;;;;;11.19;56.55;101537.66;5036818;28;20697;-71
2023/09/17 01:37:30;;;;;;;24.67;15.13;;;;;;;11.29;56.15;101543.47;5024386;28;20026;-71
2023/09/17 01:40:05;;;;;;;21.60;12.88;;;;;;;11.25;56.23;101538.31;4996561;28;20040;-71
2023/09/17 01:42:32;;;;;;;24.77;15.50;;;;;;;11.19;56.19;101540.25;5041618;28;20029;-71
2023/09/17 01:45:00;;;;;;;25.00;14.93;;;;;;;11.17;56.62;101529.00;5023977;28;20064;-71
2023/09/17 01:47:27;;;;;;;25.17;15.27;;;;;;;11.21;56.32;101531.47;5028546;28;20049;-73
2023/09/17 01:49:57;;;;;;;28.70;15.68;;;;;;;11.11;56.58;101531.81;5012296;28;20103;-73
2023/09/17 01:52:26;;;;;;;23.15;14.18;;;;;;;11.13;56.63;101535.22;5044043;28;20037;-73
2023/09/17 01:54:52;;;;;;;22.80;14.15;;;;;;;11.20;56.45;101539.38;5045100;28;20041;-72
2023/09/17 01:57:18;;;;;;;22.73;13.07;;;;;;;11.23;56.32;101537.50;5022562;28;20515;-72
2023/09/17 01:59:44;;;;;;;25.90;16.50;;;;;;;11.19;56.51;101532.41;5029092;28;20269;-73
2023/09/17 02:02:10;;;;;;;22.58;13.68;;;;;;;11.15;56.52;101529.06;5019864;28;20043;-73
2023/09/17 02:04:35;;;;;;;24.15;14.63;;;;;;;11.25;56.32;101532.22;5029065;28;20091;-75
2023/09/17 02:07:02;;;;;;;27.63;15.52;;;;;;;11.32;56.44;101520.66;5027981;28;20032;-74
2023/09/17 02:09:27;;;;;;;25.75;16.23;;;;;;;11.28;56.22;101529.50;5022961;28;20047;-73
2023/09/17 02:11:53;;;;;;;25.25;15.57;;;;;;;11.40;56.12;101523.88;5025792;28;20021;-74
2023/09/17 02:14:18;;;;;;;30.98;17.38;;;;;;;11.34;56.24;101513.59;5022808;28;20048;-73
2023/09/17 02:16:43;;;;;;;27.67;16.17;;;;;;;11.28;56.29;101518.19;5023854;28;20029;-73
2023/09/17 02:19:12;;;;;;;29.00;16.67;;;;;;;11.24;56.79;101522.66;5019574;28;20048;-74
2023/09/17 02:21:37;;;;;;;29.35;14.88;;;;;;;11.31;56.96;101526.81;5025629;28;20088;-74
2023/09/17 02:24:03;;;;;;;26.40;16.77;;;;;;;11.36;56.77;101527.50;5026547;28;20144;-71
2023/09/17 02:26:29;;;;;;;33.35;20.10;;;;;;;11.27;56.86;101533.03;5024020;28;20425;-73
2023/09/17 02:28:56;;;;;;;31.10;18.70;;;;;;;11.17;57.17;101522.03;5024911;28;20618;-73
2023/09/17 02:31:21;;;;;;;30.17;18.27;;;;;;;11.20;57.32;101527.16;5026497;28;20053;-73
2023/09/17 02:33:47;;;;;;;30.73;18.33;;;;;;;11.25;57.54;101524.38;5023433;28;20065;-73
2023/09/17 02:36:13;;;;;;;27.73;17.80;;;;;;;11.18;57.39;101522.88;5036427;28;20127;-71
2023/09/17 02:38:39;;;;;;;30.95;17.85;;;;;;;11.30;57.23;101516.38;5022289;28;20317;-70
2023/09/17 02:41:05;;;;;;;31.75;18.15;;;;;;;11.32;56.69;101504.09;5023920;28;20041;-69
2023/09/17 02:43:30;;;;;;;31.55;16.75;;;;;;;11.25;56.66;101501.69;5037812;28;20121;-71
2023/09/17 02:45:56;;;;;;;29.58;17.42;;;;;;;11.24;56.75;101493.88;5027951;28;20656;-73
2023/09/17 02:48:22;;;;;;;24.15;14.93;;;;;;;11.19;56.85;101494.00;5018651;28;20047;-73
2023/09/17 02:50:47;;;;;;;29.20;16.67;;;;;;;11.16;56.94;101495.91;5025108;28;20090;-73
2023/09/17 02:53:13;;;;;;;25.20;15.98;;;;;;;11.11;57.09;101495.19;5019482;28;20080;-72
2023/09/17 02:55:39;;;;;;;25.25;15.52;;;;;;;11.25;56.79;101492.97;5006268;28;20026;-73
2023/09/17 02:58:05;;;;;;;24.50;15.45;;;;;;;11.15;57.08;101494.16;5027651;28;20052;-69
2023/09/17 03:00:34;;;;;;;26.65;15.05;;;;;;;11.14;57.03;101505.56;5020605;28;20367;-72
2023/09/17 03:03:00;;;;;;;22.10;14.98;;;;;;;11.14;57.07;101495.94;5026699;28;20050;-71
2023/09/17 03:05:26;;;;;;;20.00;13.57;;;;;;;11.15;56.89;101496.78;5028023;28;20128;-72
2023/09/17 03:07:54;;;;;;;24.92;15.15;;;;;;;11.25;56.87;101508.69;5022878;28;20041;-72
2023/09/17 03:10:22;;;;;;;27.65;17.63;;;;;;;11.24;56.66;101506.94;5019434;28;20025;-72
2023/09/17 03:12:49;;;;;;;20.27;14.77;;;;;;;11.18;56.76;101509.78;5027007;28;20123;-71
2023/09/17 03:15:16;;;;;;;27.33;16.42;;;;;;;11.09;56.89;101517.94;5022671;28;20067;-71
2023/09/17 03:17:44;;;;;;;27.33;16.38;;;;;;;11.02;57.09;101512.03;5025293;28;20053;-71
2023/09/17 03:20:13;;;;;;;28.15;18.45;;;;;;;10.96;57.37;101512.22;5015091;28;20082;-73
2023/09/17 03:22:40;;;;;;;26.60;16.38;;;;;;;10.90;57.18;101513.25;5037444;28;20025;-71
2023/09/17 03:25:06;;;;;;;23.73;15.38;;;;;;;11.00;57.16;101508.63;5036574;28;20510;-72
2023/09/17 03:27:33;;;;;;;23.65;15.02;;;;;;;11.00;57.10;101514.69;5026374;28;20028;-72
2023/09/17 03:30:03;;;;;;;29.45;16.52;;;;;;;11.10;56.90;101511.78;5004378;28;20095;-71
2023/09/17 03:32:29;;;;;;;24.38;15.23;;;;;;;11.12;56.83;101517.81;5020590;28;20106;-72
2023/09/17 03:34:56;;;;;;;25.33;15.07;;;;;;;11.04;56.40;101505.84;5036986;28;20048;-72
2023/09/17 03:37:22;;;;;;;27.02;14.98;;;;;;;11.04;56.56;101515.47;5021875;28;20429;-71
2023/09/17 03:40:14;;;;;;;23.73;15.48;;;;;;;11.00;56.72;101509.47;5043670;28;20032;-71
2023/09/17 03:42:42;;;;;;;26.02;15.40;;;;;;;10.89;56.62;101508.09;5026155;28;20386;-70
2023/09/17 03:45:11;;;;;;;23.20;14.23;;;;;;;10.92;56.64;101505.38;5041204;28;20040;-72
2023/09/17 03:47:40;;;;;;;20.77;14.18;;;;;;;10.85;56.74;101507.31;5027091;28;20084;-71
2023/09/17 03:50:06;;;;;;;21.23;12.40;;;;;;;10.83;56.76;101507.38;5022930;28;20168;-71
2023/09/17 03:52:35;;;;;;;17.58;12.63;;;;;;;10.76;56.63;101505.81;5025523;28;20044;-70
2023/09/17 03:55:01;;;;;;;20.00;12.60;;;;;;;10.76;56.63;101511.03;5034267;28;20071;-70
2023/09/17 03:57:29;;;;;;;24.08;15.60;;;;;;;10.73;56.60;101515.53;5019389;28;20044;-70
2023/09/17 03:59:54;;;;;;;22.35;14.82;;;;;;;10.52;56.53;101517.88;5025992;28;20419;-69
2023/09/17 04:02:20;;;;;;;25.15;15.25;;;;;;;10.41;57.04;101512.09;5021710;28;20037;-68
2023/09/17 04:04:49;;;;;;;19.77;13.73;;;;;;;10.57;57.05;101515.09;5024377;28;20810;-68
2023/09/17 04:07:15;;;;;;;19.92;14.02;;;;;;;10.46;57.19;101512.84;5018246;28;20166;-68
2023/09/17 04:09:42;;;;;;;24.77;15.02;;;;;;;10.39;57.11;101519.13;5020479;28;20069;-67
2023/09/17 04:12:08;;;;;;;22.15;14.30;;;;;;;10.34;57.37;101515.78;5021078;28;20399;-68
2023/09/17 04:14:33;;;;;;;23.08;14.00;;;;;;;10.50;57.22;101524.88;5023782;28;21107;-70
2023/09/17 04:17:02;;;;;;;21.52;14.88;;;;;;;10.44;57.12;101519.88;5022045;28;20049;-71
2023/09/17 04:19:29;;;;;;;23.17;14.40;;;;;;;10.37;57.47;101523.53;5025276;28;20049;-68
2023/09/17 04:21:55;;;;;;;23.40;13.27;;;;;;;10.47;57.20;101518.91;5025693;28;20949;-69
2023/09/17 04:24:21;;;;;;;24.25;13.63;;;;;;;10.52;57.17;101522.25;5020211;28;20132;-68
2023/09/17 04:26:46;;;;;;;23.58;14.13;;;;;;;10.53;57.01;101523.97;5020090;28;20179;-69
2023/09/17 04:29:12;;;;;;;18.00;12.10;;;;;;;10.45;56.99;101520.72;5022968;28;20037;-69
2023/09/17 04:31:38;;;;;;;24.05;13.85;;;;;;;10.37;57.16;101516.56;5018303;28;20037;-70
2023/09/17 04:34:04;;;;;;;21.83;14.07;;;;;;;10.34;57.08;101518.41;5004525;28;20036;-70
2023/09/17 04:36:30;;;;;;;18.88;11.88;;;;;;;10.37;57.35;101513.09;5040177;28;20638;-70
2023/09/17 04:38:56;;;;;;;20.90;13.00;;;;;;;10.47;57.02;101514.53;5023234;28;20073;-68
2023/09/17 04:41:22;;;;;;;21.15;13.20;;;;;;;10.45;56.65;101518.94;5033703;28;20028;-69
2023/09/17 04:43:47;;;;;;;19.48;12.98;;;;;;;10.39;57.08;101524.34;5024620;28;20033;-68
2023/09/17 04:46:13;;;;;;;16.48;12.57;;;;;;;10.30;57.23;101528.06;5021627;28;20171;-68
2023/09/17 04:48:39;;;;;;;19.10;13.80;;;;;;;10.22;57.17;101530.91;5024584;28;20245;-69
2023/09/17 04:51:06;;;;;;;18.00;11.75;;;;;;;10.32;57.32;101538.50;5040369;28;20622;-67
2023/09/17 04:53:32;;;;;;;16.35;11.00;;;;;;;10.47;57.33;101534.59;5039621;28;20527;-67
2023/09/17 04:55:59;;;;;;;17.42;12.23;;;;;;;10.55;57.16;101533.47;5040843;28;20032;-70
2023/09/17 04:58:31;;;;;;;16.13;11.90;;;;;;;10.62;57.12;101524.53;5036691;28;20061;-70
2023/09/17 05:00:59;;;;;;;18.27;13.52;;;;;;;10.56;56.90;101535.16;5029577;28;20026;-70
2023/09/17 05:03:25;;;;;;;19.60;12.52;;;;;;;10.66;57.22;101534.91;5023239;28;20094;-70
2023/09/17 05:05:51;;;;;;;15.55;11.48;;;;;;;10.85;56.97;101543.94;5024456;28;20025;-70
2023/09/17 05:08:18;;;;;;;16.17;12.18;;;;;;;10.81;56.62;101545.78;5007246;28;20655;-70
2023/09/17 05:10:44;;;;;;;17.92;12.13;;;;;;;10.77;56.79;101541.53;5023002;28;20086;-70
2023/09/17 05:13:11;;;;;;;17.63;12.15;;;;;;;10.77;57.03;101543.28;5022595;28;20067;-69
2023/09/17 05:15:38;;;;;;;17.02;11.65;;;;;;;10.82;57.13;101544.03;5024073;28;20034;-73
2023/09/17 05:18:09;;;;;;;19.20;12.45;;;;;;;11.00;57.29;101538.25;5029004;28;20032;-73
2023/09/17 05:20:41;;;;;;;23.27;13.63;;;;;;;11.14;56.68;101536.94;5003530;28;20477;-70
2023/09/17 05:23:08;;;;;;;19.90;12.77;;;;;;;11.29;56.82;101535.63;5024440;28;20427;-68
2023/09/17 05:25:34;;;;;;;16.58;11.05;;;;;;;11.44;56.52;101533.34;5021194;28;20577;-66
2023/09/17 05:28:03;;;;;;;17.42;12.07;;;;;;;11.51;55.97;101535.72;5028331;28;20029;-70
2023/09/17 05:30:29;;;;;;;25.55;13.38;;;;;;;11.44;55.75;101533.34;5042254;28;20136;-72
2023/09/17 05:32:54;;;;;;;18.48;12.70;;;;;;;11.48;56.26;101535.84;5028043;28;20025;-72
2023/09/17 05:35:20;;;;;;;19.98;12.38;;;;;;;11.56;56.25;101544.31;5019844;28;20037;-71
2023/09/17 05:37:45;;;;;;;12.32;9.10;;;;;;;11.68;56.38;101539.50;5024965;28;20033;-72
2023/09/17 05:40:11;;;;;;;13.50;10.07;;;;;;;11.88;56.05;101546.69;5022246;28;20060;-68
2023/09/17 05:42:37;;;;;;;14.55;11.60;;;;;;;11.96;55.61;101537.75;5021477;28;20091;-67
2023/09/17 05:45:06;;;;;;;15.50;10.93;;;;;;;12.02;55.79;101537.50;5025514;28;20505;-69
2023/09/17 05:47:32;;;;;;;13.70;9.38;;;;;;;12.09;55.74;101533.78;5037614;28;20254;-67
2023/09/17 05:50:00;;;;;;;15.10;11.63;;;;;;;12.13;55.34;101535.34;5023669;28;20044;-70
2023/09/17 05:52:29;;;;;;;11.68;8.70;;;;;;;12.22;55.92;101537.66;5023994;28;20054;-68
2023/09/17 05:54:55;;;;;;;11.40;8.82;;;;;;;12.40;55.80;101532.63;5027092;28;20102;-70
2023/09/17 05:57:21;;;;;;;13.00;9.23;;;;;;;12.59;55.49;101531.03;5023650;28;20438;-70
2023/09/17 05:59:46;;;;;;;13.40;9.98;;;;;;;12.66;54.84;101535.13;5021691;28;20569;-70
2023/09/17 06:02:12;;;;;;;14.00;9.70;;;;;;;12.74;54.81;101532.25;5023779;28;20036;-70
2023/09/17 06:04:38;;;;;;;13.23;10.25;;;;;;;12.83;54.57;101529.28;5033139;28;20043;-70
2023/09/17 06:07:04;;;;;;;15.07;10.18;;;;;;;12.97;54.54;101533.97;5026380;28;20033;-69
2023/09/17 06:09:31;;;;;;;12.95;10.18;;;;;;;13.20;54.51;101534.81;5021882;28;20041;-71
2023/09/17 06:11:57;;;;;;;12.93;10.23;;;;;;;13.29;54.28;101540.56;5028151;28;20296;-70
2023/09/17 06:14:23;;;;;;;10.27;9.18;;;;;;;13.44;53.74;101533.81;5033409;28;20071;-68
2023/09/17 06:16:49;;;;;;;14.25;10.60;;;;;;;13.55;54.30;101532.50;5012622;28;20037;-68
2023/09/17 06:19:15;;;;;;;17.98;10.27;;;;;;;13.64;53.97;101529.53;5025667;28;20056;-70
2023/09/17 06:21:43;;;;;;;15.20;11.00;;;;;;;13.60;54.31;101528.78;5003286;28;20442;-69
2023/09/17 06:24:22;;;;;;;12.65;10.98;;;;;;;13.80;54.64;101530.56;5028507;28;20043;-69
2023/09/17 06:26:48;;;;;;;19.40;10.65;;;;;;;13.86;54.18;101525.06;5038595;28;20579;-68
2023/09/17 06:29:13;;;;;;;14.27;11.23;;;;;;;13.88;54.54;101522.38;5026121;28;20115;-69
2023/09/17 06:31:40;;;;;;;13.77;10.40;;;;;;;13.98;54.32;101522.81;5036541;28;20025;-69
2023/09/17 06:34:06;;;;;;;18.60;13.07;;;;;;;14.05;54.00;101519.81;5027015;28;20160;-70
2023/09/17 06:36:32;;;;;;;15.95;11.15;;;;;;;13.98;54.39;101518.41;5000915;28;20107;-71
2023/09/17 06:38:57;;;;;;;18.00;11.70;;;;;;;14.04;54.75;101517.28;5040548;28;20052;-71
2023/09/17 06:41:24;;;;;;;16.77;13.63;;;;;;;14.12;54.96;101518.66;5020921;28;20119;-71
2023/09/17 06:43:49;;;;;;;17.23;13.45;;;;;;;14.17;55.08;101526.34;5038578;28;20068;-74
2023/09/17 06:46:15;;;;;;;15.07;12.77;;;;;;;14.26;55.04;101520.66;5012854;28;20033;-74
2023/09/17 06:48:40;;;;;;;17.27;13.48;;;;;;;14.38;55.09;101513.13;5019554;28;20060;-66
2023/09/17 06:51:06;;;;;;;16.80;13.40;;;;;;;14.49;54.68;101524.03;5039913;28;20033;-69
2023/09/17 06:53:31;;;;;;;21.20;16.42;;;;;;;14.55;54.60;101523.75;5016933;28;20045;-69
2023/09/17 06:55:58;;;;;;;21.33;16.67;;;;;;;14.61;54.60;101518.19;5028105;28;20041;-65
2023/09/17 06:58:25;;;;;;;25.63;17.25;;;;;;;14.63;55.13;101518.97;5019078;28;20573;-65
2023/09/17 07:00:52;;;;;;;21.98;16.42;;;;;;;14.73;55.45;101519.41;5025307;28;20491;-68
2023/09/17 07:03:18;;;;;;;19.38;14.43;;;;;;;14.89;55.62;101524.78;5022911;28;20553;-68
2023/09/17 07:05:59;;;;;;;17.58;14.10;;;;;;;15.15;55.53;101523.53;5021855;28;20989;-67
2023/09/17 07:08:25;;;;;;;25.58;18.88;;;;;;;15.33;55.16;101521.81;5004064;28;20044;-64
2023/09/17 07:10:51;;;;;;;20.52;14.77;;;;;;;15.55;54.58;101525.06;5022114;28;20033;-66
2023/09/17 07:13:17;;;;;;;16.17;14.15;;;;;;;15.72;54.30;101526.81;5020718;28;20110;-66
2023/09/17 07:15:46;;;;;;;23.33;16.75;;;;;;;15.66;53.58;101513.97;5017200;28;20029;-68
2023/09/17 07:18:15;;;;;;;19.90;14.98;;;;;;;15.61;54.81;101515.13;5018433;28;20117;-68
2023/09/17 07:20:41;;;;;;;26.92;18.15;;;;;;;15.62;54.20;101512.44;5021196;28;20615;-69
2023/09/17 07:23:08;;;;;;;25.42;18.00;;;;;;;15.67;55.01;101513.03;5022453;28;20025;-68
2023/09/17 07:25:33;;;;;;;20.02;17.02;;;;;;;15.76;54.36;101515.19;5015695;28;20021;-67
2023/09/17 07:28:04;;;;;;;21.17;15.15;;;;;;;15.86;54.93;101518.19;5021448;28;20850;-67
2023/09/17 07:30:34;;;;;;;24.02;17.10;;;;;;;15.93;54.07;101511.69;5029205;28;20351;-66
2023/09/17 07:33:02;;;;;;;22.55;17.77;;;;;;;15.81;54.29;101509.69;5019890;28;20490;-66
2023/09/17 07:35:28;;;;;;;20.27;15.70;;;;;;;15.77;54.24;101510.75;5015839;28;20475;-64
2023/09/17 07:37:54;;;;;;;24.05;18.95;;;;;;;15.78;54.51;101512.47;5019227;28;20041;-66
2023/09/17 07:40:20;;;;;;;21.58;16.88;;;;;;;15.75;54.61;101502.97;5017166;28;20464;-65
2023/09/17 07:42:46;;;;;;;19.88;16.13;;;;;;;15.87;54.21;101506.72;5037182;28;20217;-67
2023/09/17 07:45:12;;;;;;;21.75;16.38;;;;;;;16.04;54.75;101503.25;5018773;28;20059;-66
2023/09/17 07:47:39;;;;;;;15.90;14.18;;;;;;;16.47;53.27;101489.50;5018192;28;20029;-65
2023/09/17 07:50:05;;;;;;;23.45;16.35;;;;;;;16.93;51.74;101497.50;5019134;28;20694;-65
2023/09/17 07:52:32;;;;;;;17.45;14.43;;;;;;;17.22;52.00;101496.69;5014273;28;20618;-64
2023/09/17 07:54:58;;;;;;;22.00;16.27;;;;;;;17.49;51.29;101496.00;5020420;28;20045;-66
2023/09/17 07:57:24;;;;;;;23.75;16.48;;;;;;;18.08;50.78;101497.78;5017597;28;20698;-66
2023/09/17 07:59:51;;;;;;;19.42;15.23;;;;;;;18.78;48.60;101503.88;5014953;28;20045;-65
2023/09/17 08:02:18;;;;;;;20.70;14.40;;;;;;;19.25;46.62;101494.63;5006351;28;20064;-68
2023/09/17 08:04:44;;;;;;;18.58;14.63;;;;;;;19.79;46.80;101500.75;5014671;28;20637;-68
2023/09/17 08:07:11;;;;;;;18.77;12.68;;;;;;;20.68;44.43;101497.06;5017660;28;20032;-66
2023/09/17 08:09:38;;;;;;;13.63;11.48;;;;;;;22.12;40.78;101499.44;5013417;28;20132;-67
2023/09/17 08:12:05;;;;;;;17.90;11.95;;;;;;;23.13;38.83;101494.84;5022012;28;20128;-68
2023/09/17 08:14:34;;;;;;;17.40;13.32;;;;;;;23.96;37.34;101498.44;5018227;28;20041;-68
2023/09/17 08:17:01;;;;;;;12.77;10.25;;;;;;;24.61;35.04;101494.41;5041120;28;20026;-68
2023/09/17 08:19:27;;;;;;;11.48;10.38;;;;;;;23.67;36.67;101504.47;5015951;28;20519;-68
2023/09/17 08:21:53;;;;;;;13.00;9.60;;;;;;;22.49;38.96;101508.94;5020854;28;20041;-68
2023/09/17 08:24:20;;;;;;;13.85;10.95;;;;;;;21.57;39.62;101509.06;5023161;28;20107;-69
2023/09/17 08:26:47;;;;;;;14.75;11.73;;;;;;;20.28;43.66;101511.47;5018660;28;20120;-68
2023/09/17 08:29:13;;;;;;;19.08;13.20;;;;;;;19.67;44.92;101510.41;5002771;28;20049;-67
2023/09/17 08:31:38;;;;;;;15.85;11.80;;;;;;;19.54;45.83;101507.72;5016186;28;20107;-68
2023/09/17 08:34:04;;;;;;;14.40;12.48;;;;;;;19.63;45.77;101501.81;5035669;28;23665;-70
2023/09/17 08:36:29;;;;;;;18.80;12.90;;;;;;;19.84;45.18;101501.28;5019170;28;20101;-66
2023/09/17 08:38:55;;;;;;;13.60;11.95;;;;;;;19.30;46.02;101495.19;5016249;28;20037;-67
2023/09/17 08:41:25;;;;;;;17.38;13.35;;;;;;;19.46;46.10;101496.78;5021575;28;20044;-66
2023/09/17 08:43:54;;;;;;;16.45;12.48;;;;;;;19.41;46.38;101493.59;5016802;28;20794;-66
2023/09/17 08:46:21;;;;;;;12.55;11.07;;;;;;;19.41;46.98;101497.13;5019454;28;20033;-66
2023/09/17 08:48:47;;;;;;;16.27;11.40;;;;;;;19.39;46.19;101487.53;5016169;28;20043;-66
2023/09/17 08:51:17;;;;;;;13.73;10.98;;;;;;;19.21;46.07;101486.97;5020789;28;20511;-67
2023/09/17 08:54:02;;;;;;;18.92;12.27;;;;;;;19.02;46.45;101480.28;5015814;28;20049;-67
2023/09/17 08:56:32;;;;;;;14.18;10.85;;;;;;;18.89;47.21;101482.03;5017982;28;20096;-67
2023/09/17 08:59:07;;;;;;;21.42;11.70;;;;;;;18.83;47.36;101480.63;5017876;28;20041;-68
2023/09/17 09:01:36;;;;;;;14.88;12.10;;;;;;;19.06;46.82;101481.78;5015414;28;20890;-65
2023/09/17 09:04:02;;;;;;;14.55;11.05;;;;;;;18.89;47.00;101480.22;5018688;28;20082;-66
2023/09/17 09:06:29;;;;;;;15.55;11.75;;;;;;;18.78;46.89;101477.41;5021183;28;20115;-67
2023/09/17 09:08:55;;;;;;;16.90;12.20;;;;;;;18.68;47.39;101471.03;5036901;28;20048;-66
2023/09/17 09:11:21;;;;;;;16.02;11.73;;;;;;;19.12;47.19;101464.59;5018379;28;20068;-66
2023/09/17 09:13:48;;;;;;;17.45;12.73;;;;;;;19.42;46.39;101463.50;5017263;28;20144;-65
2023/09/17 09:16:14;;;;;;;15.20;11.20;;;;;;;19.75;45.82;101459.47;5040281;28;20446;-65
2023/09/17 09:18:39;;;;;;;13.27;9.95;;;;;;;20.15;45.68;101454.88;5015984;28;20119;-65
2023/09/17 09:21:05;;;;;;;16.45;11.13;;;;;;;20.44;42.82;101450.13;5017212;28;20048;-66
2023/09/17 09:23:31;;;;;;;12.13;9.82;;;;;;;20.34;43.31;101441.13;5021098;28;20044;-66
2023/09/17 09:25:56;;;;;;;12.38;9.05;;;;;;;20.64;42.59;101445.16;5015932;28;20159;-68
2023/09/17 09:28:22;;;;;;;11.57;9.65;;;;;;;21.07;41.99;101441.97;5033102;28;20057;-66
2023/09/17 09:30:48;;;;;;;14.02;9.35;;;;;;;21.29;40.76;101444.69;5015105;28;20033;-67
2023/09/17 09:33:14;;;;;;;15.60;9.88;;;;;;;21.05;40.48;101438.59;5022140;28;20490;-66
2023/09/17 09:35:40;;;;;;;10.40;9.23;;;;;;;20.77;41.01;101437.13;5019130;28;20048;-65
2023/09/17 09:38:05;;;;;;;10.45;8.43;;;;;;;20.88;41.41;101437.19;5036854;28;20140;-67
2023/09/17 09:40:34;;;;;;;16.55;9.52;;;;;;;21.14;40.86;101438.72;5021199;28;20033;-67
2023/09/17 09:43:02;;;;;;;11.10;8.60;;;;;;;21.82;39.10;101438.81;5039830;28;20091;-67
2023/09/17 09:45:28;;;;;;;10.80;9.63;;;;;;;21.91;39.69;101438.13;5020408;28;20513;-66
2023/09/17 09:47:54;;;;;;;11.80;8.55;;;;;;;21.47;39.75;101442.44;5022375;28;20029;-67
2023/09/17 09:50:24;;;;;;;13.35;9.48;;;;;;;21.31;40.96;101426.81;5020066;28;20066;-66
2023/09/17 09:52:49;;;;;;;13.57;9.43;;;;;;;21.02;41.83;101423.72;5022698;28;20531;-67
2023/09/17 09:55:15;;;;;;;11.57;10.13;;;;;;;20.78;41.04;101426.38;5027198;28;20051;-66
2023/09/17 09:57:45;;;;;;;15.30;9.35;;;;;;;20.40;41.27;101426.59;5023886;28;20725;-66
2023/09/17 10:00:14;;;;;;;12.52;9.13;;;;;;;20.07;42.24;101425.38;5025913;28;20080;-66
2023/09/17 10:02:40;;;;;;;12.43;10.20;;;;;;;20.20;41.72;101417.38;5024944;28;21396;-67
2023/09/17 10:05:10;;;;;;;12.57;9.65;;;;;;;20.60;42.55;101411.84;5022596;28;20569;-66
2023/09/17 10:07:36;;;;;;;11.13;9.52;;;;;;;21.11;41.19;101414.19;5021226;28;20033;-66
2023/09/17 10:10:02;;;;;;;11.85;7.43;;;;;;;21.58;38.94;101412.38;5019901;28;20041;-69
2023/09/17 10:12:28;;;;;;;8.35;6.40;;;;;;;21.26;37.78;101396.22;5017782;28;20025;-65
2023/09/17 10:14:55;;;;;;;13.30;7.30;;;;;;;21.62;37.76;101400.50;5017590;28;20045;-67
2023/09/17 10:17:20;;;;;;;12.00;6.30;;;;;;;22.43;36.13;101398.47;5036018;28;20091;-68
2023/09/17 10:19:47;;;;;;;10.90;7.15;;;;;;;22.30;36.20;101393.28;5016658;28;20041;-65
2023/09/17 10:22:15;;;;;;;6.97;5.88;;;;;;;22.58;36.81;101388.31;5022040;28;20083;-65
2023/09/17 10:24:41;;;;;;;6.97;6.28;;;;;;;22.83;35.90;101384.50;5015769;28;20068;-67
2023/09/17 10:27:08;;;;;;;8.18;6.97;;;;;;;22.98;35.43;101380.50;5018841;28;20129;-69
2023/09/17 10:29:35;;;;;;;7.10;6.13;;;;;;;22.78;36.79;101376.91;5016398;28;20049;-69
2023/09/17 10:32:04;;;;;;;11.20;7.55;;;;;;;22.98;35.62;101364.50;5018063;28;20036;-70
2023/09/17 10:34:32;;;;;;;8.00;5.75;;;;;;;22.67;36.61;101354.75;5001803;28;20053;-69
2023/09/17 10:37:01;;;;;;;8.45;6.10;;;;;;;22.83;36.76;101352.53;5016165;28;21125;-69
2023/09/17 10:39:27;;;;;;;10.82;6.10;;;;;;;22.42;37.54;101362.13;5017018;28;20502;-70
2023/09/17 10:41:55;;;;;;;8.30;7.15;;;;;;;22.09;37.86;101350.66;5013917;28;20040;-70
2023/09/17 10:44:23;;;;;;;10.65;7.55;;;;;;;21.91;37.79;101350.28;5017919;28;20051;-67
2023/09/17 10:46:51;;;;;;;9.98;8.05;;;;;;;21.84;38.35;101350.91;5015019;28;20629;-69
2023/09/17 10:49:17;;;;;;;13.57;7.65;;;;;;;21.98;38.42;101343.50;5021048;28;20052;-69
2023/09/17 10:51:45;;;;;;;10.38;7.50;;;;;;;22.15;38.90;101341.28;5015299;28;20732;-67
2023/09/17 10:54:11;;;;;;;13.45;9.00;;;;;;;21.99;38.41;101336.34;5018668;28;20069;-69
2023/09/17 10:56:41;;;;;;;14.85;9.55;;;;;;;22.13;38.38;101330.75;5017034;28;20407;-71
2023/09/17 10:59:09;;;;;;;10.38;8.60;;;;;;;22.27;38.22;101331.44;5022771;28;20044;-71
2023/09/17 11:01:36;;;;;;;14.27;9.02;;;;;;;22.04;38.93;101328.81;5017141;28;20064;-69
2023/09/17 11:04:07;;;;;;;10.45;7.63;;;;;;;22.08;38.76;101332.97;5021791;28;20055;-70
2023/09/17 11:06:35;;;;;;;11.07;8.18;;;;;;;21.74;39.59;101335.69;5018635;28;20041;-69
2023/09/17 11:09:01;;;;;;;11.02;7.82;;;;;;;21.59;39.79;101336.91;5015239;28;21114;-69
2023/09/17 11:11:29;;;;;;;14.32;9.38;;;;;;;21.68;40.42;101333.50;5016811;28;20037;-71